Terminal Aerodrome Forecast
Issued by NWS

Home | Current Version | Previous Version | Text Only | Print | Product List | Glossary On
Versions: 1 2 3 4 5 6 7 8 9 10 11 12 13 14 15 16 17 18 19 20 21 22 23 24 25 26 27
000
FTUS44 KOUN 061120
TAFPNC
TAF
KPNC 061120Z 0612/0712 14016KT 6SM -RA BR SCT011 OVC030
      TEMPO 0612/0614 3SM -RA SCT007
     FM061400 17018G25KT P6SM FEW009 BKN030
     FM070000 16015G25KT P6SM OVC050=

USA.gov is the U.S. government's official web portal to all federal, state and local government web resources and services.